Time;durP1;ratioP1;P1;durP2;ratioP2;P2;SDS_P1;SDS_P2;PMS_P1;PMS_P2;Temp;Humidity;BMP_temperature;BMP_pressure;BME280_temperature;BME280_humidity;BME280_pressure;Samples;Min_cycle;Max_cycle;Signal;HPM_P1;HPM_P2
2023/10/20 00:01:01;;;;;;;17.05;10.52;;;;;;;7.46;78.54;98912.03;6148930;23;20017;-93
2023/10/20 00:03:27;;;;;;;22.35;11.60;;;;;;;7.22;78.87;98882.31;6147661;23;20041;-95
2023/10/20 00:05:53;;;;;;;21.88;10.65;;;;;;;7.36;78.76;98893.19;6199759;23;20020;-94
2023/10/20 00:08:20;;;;;;;20.23;10.80;;;;;;;7.37;78.44;98892.06;6169699;23;20486;-95
2023/10/20 00:10:47;;;;;;;24.38;11.07;;;;;;;7.10;78.22;98852.09;6169579;23;20017;-93
2023/10/20 00:13:13;;;;;;;19.10;11.75;;;;;;;7.16;78.38;98861.78;6144186;23;20021;-95
2023/10/20 00:15:39;;;;;;;23.75;12.00;;;;;;;7.46;78.75;98913.94;6145690;23;20078;-94
2023/10/20 00:18:05;;;;;;;20.77;11.20;;;;;;;7.37;78.57;98894.78;6144365;23;20024;-93
2023/10/20 00:20:31;;;;;;;21.48;11.82;;;;;;;7.84;78.46;98965.41;6144644;23;20093;-96
2023/10/20 00:22:57;;;;;;;19.67;11.73;;;;;;;7.47;78.11;98910.91;6145185;23;20017;-95
2023/10/20 00:25:23;;;;;;;20.27;11.65;;;;;;;7.60;78.54;98928.34;6169098;23;20020;-94
2023/10/20 00:27:49;;;;;;;23.98;11.65;;;;;;;7.84;78.32;98959.97;6170610;23;20017;-92
2023/10/20 00:30:15;;;;;;;19.48;10.93;;;;;;;7.85;78.46;98972.47;6169688;23;20018;-93
2023/10/20 00:32:42;;;;;;;20.90;11.45;;;;;;;7.86;78.56;98972.16;6146203;23;20036;-95
2023/10/20 00:35:09;;;;;;;23.50;11.07;;;;;;;7.87;78.60;98972.97;6146193;23;20021;-94
2023/10/20 00:37:37;;;;;;;20.70;11.02;;;;;;;7.21;78.50;98871.72;6145514;23;20025;-94
2023/10/20 00:40:09;;;;;;;20.33;11.52;;;;;;;7.11;78.92;98852.91;6145819;23;20105;-94
2023/10/20 00:42:36;;;;;;;24.40;11.60;;;;;;;7.48;78.60;98907.09;6145272;23;20103;-93
2023/10/20 00:45:02;;;;;;;19.13;10.48;;;;;;;7.51;78.19;98900.22;6146774;23;20020;-91
2023/10/20 00:47:31;;;;;;;19.70;11.02;;;;;;;7.61;78.27;98910.91;6136702;23;20157;-93
2023/10/20 00:49:58;;;;;;;20.48;11.15;;;;;;;7.41;78.19;98878.69;6112167;23;20404;-92
2023/10/20 00:52:25;;;;;;;20.23;10.98;;;;;;;7.38;77.99;98877.38;6086889;23;20068;-92
2023/10/20 00:54:53;;;;;;;18.38;10.45;;;;;;;7.56;78.29;98904.78;6110926;23;20033;-92
2023/10/20 00:57:19;;;;;;;;;;;;;;;7.92;78.78;98970.16;6063123;23;20464;-95
2023/10/20 00:59:45;;;;;;;23.93;11.30;;;;;;;7.47;78.79;98901.94;6061616;23;20003;-92
2023/10/20 01:02:12;;;;;;;19.50;10.48;;;;;;;7.59;78.56;98917.78;6063635;23;20022;-92
2023/10/20 01:04:38;;;;;;;18.75;11.05;;;;;;;7.50;78.19;98902.16;6110046;23;20018;-91
2023/10/20 01:07:04;;;;;;;18.93;11.17;;;;;;;7.97;78.40;98967.31;6060286;23;20112;-92
2023/10/20 01:09:30;;;;;;;21.17;10.32;;;;;;;7.72;78.13;98939.53;6108556;23;20028;-95
2023/10/20 01:11:56;;;;;;;19.98;11.60;;;;;;;7.76;78.31;98940.53;6062481;23;20105;-93
2023/10/20 01:14:23;;;;;;;20.20;10.67;;;;;;;7.52;78.12;98901.84;6111506;23;20028;-92
2023/10/20 01:16:49;;;;;;;23.42;11.00;;;;;;;7.70;77.95;98933.56;6087701;23;20018;-92
2023/10/20 01:19:15;;;;;;;21.80;11.75;;;;;;;7.49;77.90;98892.38;6162733;23;20027;-93
2023/10/20 01:21:41;;;;;;;21.83;10.55;;;;;;;7.58;77.99;98910.69;6172890;23;20017;-94
2023/10/20 01:24:10;;;;;;;28.13;11.50;;;;;;;7.62;77.91;98926.13;6172426;23;20021;-92
2023/10/20 01:26:36;;;;;;;21.08;10.85;;;;;;;7.63;77.95;98908.69;6159224;23;20021;-91
2023/10/20 01:29:05;;;;;;;24.90;11.83;;;;;;;7.30;77.94;98864.50;6153140;23;20021;-92
2023/10/20 01:31:32;;;;;;;20.65;11.00;;;;;;;7.58;78.13;98911.50;6125473;23;20021;-92
2023/10/20 01:33:58;;;;;;;;;;;;;;;8.00;78.20;98978.41;6148240;23;20081;-92
2023/10/20 01:36:25;;;;;;;19.70;10.00;;;;;;;7.99;78.27;98979.50;6196905;23;19915;-94
2023/10/20 01:38:52;;;;;;;19.87;10.37;;;;;;;8.02;78.38;98969.94;6200958;23;20020;-94
2023/10/20 01:41:18;;;;;;;20.05;11.30;;;;;;;7.82;78.47;98943.97;6176310;23;20024;-94
2023/10/20 01:43:44;;;;;;;21.88;11.75;;;;;;;7.53;78.72;98903.47;6173824;23;20549;-94
2023/10/20 01:46:10;;;;;;;20.05;10.90;;;;;;;7.94;78.48;98982.31;6172753;23;20020;-92
2023/10/20 01:48:36;;;;;;;24.05;11.43;;;;;;;7.33;78.51;98890.28;6153959;23;20031;-91
2023/10/20 01:51:02;;;;;;;22.98;11.70;;;;;;;7.14;78.92;98866.69;6182225;23;20047;-93
2023/10/20 01:53:28;;;;;;;24.48;12.00;;;;;;;7.33;78.69;98895.72;6151666;23;20020;-93
2023/10/20 01:55:54;;;;;;;25.35;12.75;;;;;;;7.39;79.20;98908.09;6149551;23;20019;-94
2023/10/20 01:58:20;;;;;;;23.08;12.50;;;;;;;7.25;79.28;98891.75;6171969;23;20020;-91
2023/10/20 02:00:50;;;;;;;23.17;11.95;;;;;;;7.43;79.24;98915.34;6150091;23;20023;-93
2023/10/20 02:03:19;;;;;;;25.90;11.50;;;;;;;7.83;79.16;98986.38;6152835;23;20024;-91
2023/10/20 02:05:46;;;;;;;25.63;12.50;;;;;;;7.51;78.86;98933.66;6152967;23;20111;-91
2023/10/20 02:08:12;;;;;;;23.33;13.00;;;;;;;7.50;79.10;98939.41;6152872;23;20020;-94
2023/10/20 02:10:40;;;;;;;26.07;11.20;;;;;;;7.35;79.30;98916.06;6148924;23;20290;-90
2023/10/20 02:13:06;;;;;;;29.08;12.38;;;;;;;7.34;79.01;98908.19;6174337;23;20307;-91
2023/10/20 02:15:33;;;;;;;24.35;11.98;;;;;;;7.65;79.03;98968.22;6173572;23;20019;-90
2023/10/20 02:17:59;;;;;;;23.23;13.10;;;;;;;7.74;79.14;98988.19;6148585;23;20020;-91
2023/10/20 02:20:55;;;;;;;26.45;12.55;;;;;;;7.38;79.39;98933.66;6200128;23;20016;-91
2023/10/20 02:23:22;;;;;;;23.05;12.50;;;;;;;7.55;79.10;98955.66;6195718;23;20020;-90
2023/10/20 02:25:59;;;;;;;22.88;13.13;;;;;;;7.66;79.30;98970.66;6170572;23;20032;-91
2023/10/20 02:28:26;;;;;;;;;;;;;;;7.86;79.29;98996.66;6172154;23;20031;-90
2023/10/20 02:30:56;;;;;;;20.65;11.50;;;;;;;7.63;79.12;98971.25;6146300;23;20369;-90
2023/10/20 02:33:23;;;;;;;26.88;13.23;;;;;;;7.35;78.95;98926.09;6171899;23;20016;-94
2023/10/20 02:35:49;;;;;;;22.57;12.83;;;;;;;7.39;79.10;98932.56;6194238;23;20017;-94
2023/10/20 02:38:15;;;;;;;23.98;12.82;;;;;;;7.61;79.39;98961.78;6146537;23;20045;-93
2023/10/20 02:40:55;;;;;;;26.73;13.60;;;;;;;7.87;79.49;99014.59;6170945;23;20017;-93
2023/10/20 02:43:24;;;;;;;26.75;13.20;;;;;;;7.84;79.34;98998.88;6145044;23;20017;-93
2023/10/20 02:45:52;;;;;;;24.80;13.65;;;;;;;7.60;79.31;98957.47;6145606;23;20027;-93
2023/10/20 02:48:19;;;;;;;34.60;13.52;;;;;;;7.40;79.25;98915.94;6172273;23;20692;-91
2023/10/20 02:50:46;;;;;;;22.33;12.95;;;;;;;7.92;79.27;98994.66;6171502;23;20020;-91
2023/10/20 02:53:13;;;;;;;24.38;13.20;;;;;;;7.55;79.14;98939.34;6146531;23;20024;-91
2023/10/20 02:55:44;;;;;;;26.13;13.73;;;;;;;7.79;79.07;98976.41;6170068;23;20021;-90
2023/10/20 02:58:12;;;;;;;26.98;13.55;;;;;;;7.30;79.24;98908.00;6168288;23;20017;-91
2023/10/20 03:00:45;;;;;;;26.08;13.80;;;;;;;7.42;79.52;98940.94;6145601;23;20016;-92
2023/10/20 03:03:13;;;;;;;31.17;14.38;;;;;;;7.80;79.79;98986.97;6168633;23;20024;-91
2023/10/20 03:05:45;;;;;;;28.90;13.82;;;;;;;7.78;79.81;98989.19;6147295;23;20013;-93
2023/10/20 03:08:11;;;;;;;35.97;14.60;;;;;;;7.58;79.88;98962.38;6169997;23;20025;-94
2023/10/20 03:10:38;;;;;;;31.42;13.90;;;;;;;7.84;79.68;98993.41;6148449;23;20021;-90
2023/10/20 03:13:05;;;;;;;30.85;14.55;;;;;;;7.43;79.61;98922.69;6170017;23;20045;-91
2023/10/20 03:15:32;;;;;;;24.85;13.75;;;;;;;7.89;79.29;98996.06;6143600;23;20127;-94
2023/10/20 03:17:59;;;;;;;33.38;15.88;;;;;;;7.56;79.19;98940.94;6174232;23;20017;-93
2023/10/20 03:20:30;;;;;;;28.33;14.50;;;;;;;7.71;79.25;98967.81;6123829;23;20082;-91
2023/10/20 03:22:56;;;;;;;29.60;14.65;;;;;;;7.72;79.13;98965.94;6174065;23;20025;-91
2023/10/20 03:25:22;;;;;;;29.92;14.00;;;;;;;7.45;79.32;98931.34;6143673;23;20108;-91
2023/10/20 03:27:50;;;;;;;25.33;13.57;;;;;;;7.88;78.93;98996.34;6146484;23;20017;-91
2023/10/20 03:30:16;;;;;;;29.92;14.43;;;;;;;7.70;78.76;98968.94;6147147;23;20028;-91
2023/10/20 03:32:43;;;;;;;27.85;14.23;;;;;;;7.68;78.67;98975.78;6196280;23;20036;-92
2023/10/20 03:35:09;;;;;;;34.33;14.35;;;;;;;7.72;78.26;98972.19;6201257;23;20017;-90
2023/10/20 03:37:38;;;;;;;;;;;;;;;7.96;78.42;99006.53;6178310;23;20048;-90
2023/10/20 03:40:10;;;;;;;26.38;13.80;;;;;;;7.78;78.38;98983.75;6177946;23;19920;-90
2023/10/20 03:42:36;;;;;;;32.42;14.13;;;;;;;7.50;78.55;98945.66;6181419;23;20025;-91
2023/10/20 03:45:08;;;;;;;30.52;14.20;;;;;;;7.73;78.61;98981.13;6150853;23;20021;-92
2023/10/20 03:47:38;;;;;;;27.08;13.32;;;;;;;7.51;78.70;98939.09;6175615;23;20028;-91
2023/10/20 03:50:14;;;;;;;25.52;12.68;;;;;;;7.30;78.32;98916.16;6152600;23;20017;-95
2023/10/20 03:52:41;;;;;;;23.35;12.40;;;;;;;7.30;78.26;98913.44;6126582;23;20021;-93
2023/10/20 03:55:08;;;;;;;24.23;13.23;;;;;;;7.66;78.52;98969.84;6150271;23;20477;-93
2023/10/20 03:57:34;;;;;;;25.92;12.32;;;;;;;7.61;78.49;98973.47;6154653;23;20016;-92
2023/10/20 04:00:15;;;;;;;24.55;12.55;;;;;;;7.69;78.54;98985.56;6157968;23;20363;-94
2023/10/20 04:02:41;;;;;;;26.00;12.55;;;;;;;7.16;78.30;98916.13;6181619;23;20017;-95
2023/10/20 04:05:07;;;;;;;19.27;11.23;;;;;;;7.61;78.53;98986.25;6150665;23;20044;-91
2023/10/20 04:07:33;;;;;;;20.05;10.30;;;;;;;7.75;78.26;98995.25;6173599;23;20296;-91
2023/10/20 04:09:59;;;;;;;16.05;9.35;;;;;;;7.54;78.05;98971.13;6146037;23;20016;-90
2023/10/20 04:12:27;;;;;;;17.02;8.57;;;;;;;7.75;78.20;99015.09;6145136;23;20062;-92
2023/10/20 04:14:54;;;;;;;12.88;7.22;;;;;;;7.43;77.79;98963.50;6193794;23;20037;-91
2023/10/20 04:17:21;;;;;;;12.23;7.15;;;;;;;7.62;77.73;99001.50;6169131;23;20024;-91
2023/10/20 04:19:49;;;;;;;13.10;7.47;;;;;;;7.45;78.14;98978.41;6146085;23;20483;-91
2023/10/20 04:22:19;;;;;;;15.90;7.20;;;;;;;7.72;78.14;99007.53;6176442;23;20081;-89
2023/10/20 04:24:46;;;;;;;10.95;6.00;;;;;;;7.47;77.81;98968.03;6156278;23;20076;-89
2023/10/20 04:27:21;;;;;;;8.38;5.13;;;;;;;7.76;78.85;99014.00;6177447;23;20017;-91
2023/10/20 04:41:51;;;;;;;12.20;5.20;;;;;;;7.19;77.65;98920.16;6176523;23;20021;-91
2023/10/20 04:43:42;;;;;;;9.23;4.25;;;;;;;7.61;78.00;98989.78;6200365;23;20068;-90
2023/10/20 04:49:26;;;;;;;9.68;4.25;;;;;;;7.40;77.91;98964.09;6151358;23;20071;-93
2023/10/20 04:52:05;;;;;;;8.67;4.70;;;;;;;7.42;77.79;98979.00;6176154;23;20029;-92
2023/10/20 05:03:06;;;;;;;8.30;4.45;;;;;;;7.28;77.96;99008.91;6177364;23;20032;-89
2023/10/20 05:10:43;;;;;;;10.93;5.65;;;;;;;7.65;78.28;99056.09;6178696;23;20021;-91
2023/10/20 05:13:12;;;;;;;7.65;5.05;;;;;;;7.43;78.29;99015.97;6176222;23;20340;-92
2023/10/20 05:15:40;;;;;;;9.20;4.57;;;;;;;7.07;77.96;98970.38;6204676;23;20032;-92
2023/10/20 05:18:26;;;;;;;7.47;4.57;;;;;;;7.26;78.12;99007.56;6154297;23;20032;-90
2023/10/20 05:20:52;;;;;;;7.97;4.70;;;;;;;7.15;77.98;98987.09;6152811;23;20040;-93
2023/10/20 05:23:18;;;;;;;7.43;4.72;;;;;;;7.30;77.97;99022.19;6181078;23;20052;-90
2023/10/20 05:25:48;;;;;;;10.18;4.63;;;;;;;7.29;78.10;99009.69;6180948;23;20072;-91
2023/10/20 05:28:16;;;;;;;7.07;4.63;;;;;;;7.69;77.62;99061.75;6154300;23;20055;-93
2023/10/20 05:30:43;;;;;;;8.65;4.32;;;;;;;7.38;77.51;98996.22;6155374;23;20021;-93
2023/10/20 05:33:11;;;;;;;9.55;4.97;;;;;;;7.59;77.55;99026.56;6203792;23;20023;-91
2023/10/20 05:35:40;;;;;;;8.43;4.35;;;;;;;7.75;76.94;99061.34;6176593;23;20007;-90
2023/10/20 05:38:06;;;;;;;8.05;4.55;;;;;;;7.53;76.54;99018.50;6153891;23;20356;-92
2023/10/20 05:40:39;;;;;;;8.75;5.15;;;;;;;7.42;76.41;99006.19;6204641;23;20008;-92
2023/10/20 05:43:05;;;;;;;8.73;4.82;;;;;;;7.81;77.26;99058.53;6180820;23;20024;-91
2023/10/20 05:45:41;;;;;;;7.97;4.85;;;;;;;7.62;77.70;99020.53;6177303;23;20032;-95
2023/10/20 05:48:09;;;;;;;7.85;4.40;;;;;;;7.94;77.77;99060.44;6152666;23;20005;-93
2023/10/20 05:50:37;;;;;;;10.15;5.07;;;;;;;7.67;77.62;99023.16;6175001;23;20072;-91
2023/10/20 05:53:05;;;;;;;10.55;4.57;;;;;;;7.98;77.89;99059.56;6154870;23;20003;-90
2023/10/20 05:55:32;;;;;;;6.55;4.35;;;;;;;7.78;77.96;99021.84;6204154;23;20016;-92
2023/10/20 05:58:06;;;;;;;8.93;5.03;;;;;;;7.81;77.86;99025.88;6174885;23;20025;-88
2023/10/20 06:00:42;;;;;;;14.00;5.63;;;;;;;8.08;77.65;99060.44;6179449;23;20013;-94
2023/10/20 06:03:09;;;;;;;8.20;5.05;;;;;;;7.97;77.64;99043.53;6203716;23;20032;-94
2023/10/20 06:05:35;;;;;;;8.30;5.05;;;;;;;7.85;77.90;99035.88;6200703;23;20012;-89
2023/10/20 06:08:02;;;;;;;9.63;5.60;;;;;;;8.04;77.24;99064.91;6203221;23;20032;-92
2023/10/20 06:10:29;;;;;;;11.05;5.68;;;;;;;7.48;77.42;98976.97;6172546;23;20117;-91
2023/10/20 06:12:56;;;;;;;9.02;4.95;;;;;;;8.09;77.19;99075.69;6173271;23;19997;-93
2023/10/20 06:15:24;;;;;;;9.17;5.43;;;;;;;7.49;76.39;98981.34;6151285;23;20025;-94
2023/10/20 06:17:51;;;;;;;10.23;5.70;;;;;;;7.77;76.62;99025.66;6150502;23;20257;-92
2023/10/20 06:20:21;;;;;;;14.48;4.80;;;;;;;8.04;76.11;99071.16;6155381;23;20017;-92
2023/10/20 06:22:53;;;;;;;11.80;5.45;;;;;;;7.64;75.69;99002.78;6151270;23;20025;-92
2023/10/20 06:25:20;;;;;;;19.92;7.38;;;;;;;7.86;75.85;99036.69;6154090;23;20027;-94
2023/10/20 06:27:55;;;;;;;18.85;7.22;;;;;;;7.32;76.44;98960.16;6202872;23;20016;-93
2023/10/20 06:30:24;;;;;;;14.73;6.88;;;;;;;7.64;76.38;99008.22;6149872;23;20013;-91
2023/10/20 06:36:11;;;;;;;23.75;8.82;;;;;;;7.68;76.43;99038.34;6204208;23;20060;-91
2023/10/20 06:38:45;;;;;;;29.42;12.35;;;;;;;7.46;77.38;99020.81;6179495;23;20344;-92
2023/10/20 06:41:13;;;;;;;30.30;12.85;;;;;;;7.06;78.09;98957.09;6152111;23;20020;-92
2023/10/20 06:43:44;;;;;;;46.15;15.85;;;;;;;7.18;77.35;98971.00;6147256;23;20013;-91
2023/10/20 06:46:10;;;;;;;36.35;13.57;;;;;;;7.17;78.24;98971.31;6176012;23;20028;-93
2023/10/20 06:48:37;;;;;;;51.90;18.48;;;;;;;7.27;77.93;98993.66;6177043;23;20025;-92
2023/10/20 06:51:03;;;;;;;47.03;16.67;;;;;;;7.08;77.86;98973.88;6149214;23;20085;-93
2023/10/20 06:53:29;;;;;;;48.92;15.77;;;;;;;7.29;77.21;99015.13;6144163;23;20013;-93
2023/10/20 06:56:05;;;;;;;33.95;13.07;;;;;;;7.01;77.62;98966.13;6153282;23;20064;-93
2023/10/20 06:58:35;;;;;;;35.53;13.07;;;;;;;7.17;77.21;98980.25;6160022;23;20001;-92
2023/10/20 07:01:06;;;;;;;26.55;12.20;;;;;;;7.68;77.08;99060.94;6129881;23;20033;-93
2023/10/20 07:03:35;;;;;;;29.67;11.55;;;;;;;7.43;77.82;99017.88;6151439;23;20017;-93
2023/10/20 07:06:25;;;;;;;23.65;10.98;;;;;;;7.42;77.95;99016.28;6202545;23;20036;-93
2023/10/20 07:08:51;;;;;;;25.27;9.77;;;;;;;7.34;77.87;99003.34;6148630;23;20103;-92
2023/10/20 07:11:18;;;;;;;24.08;10.65;;;;;;;7.87;78.22;99079.91;6176480;23;20025;-94
2023/10/20 07:13:45;;;;;;;36.63;12.07;;;;;;;7.41;77.95;98996.41;6197246;23;20017;-92
2023/10/20 07:16:12;;;;;;;23.77;10.83;;;;;;;7.89;77.73;99064.09;6125311;23;20021;-92
2023/10/20 07:18:38;;;;;;;25.88;11.75;;;;;;;7.49;78.04;98997.66;6171550;23;20029;-92
2023/10/20 07:21:05;;;;;;;25.25;11.35;;;;;;;7.61;77.42;99008.81;6149162;23;20040;-93
2023/10/20 07:23:34;;;;;;;24.98;11.57;;;;;;;8.32;77.91;99122.91;6147773;23;20024;-90
2023/10/20 07:26:02;;;;;;;18.42;9.90;;;;;;;8.03;77.09;99066.00;6195692;23;20035;-92
2023/10/20 07:28:30;;;;;;;28.50;10.18;;;;;;;7.86;77.09;99039.41;6175410;23;20021;-92
2023/10/20 07:30:57;;;;;;;19.13;8.98;;;;;;;7.83;76.73;99015.50;6148762;23;20359;-92
2023/10/20 07:33:29;;;;;;;13.48;8.60;;;;;;;7.84;76.49;99015.19;6174142;23;20040;-93
2023/10/20 07:36:08;;;;;;;15.90;8.15;;;;;;;7.91;75.40;99010.19;6124839;23;20032;-92
2023/10/20 07:38:38;;;;;;;15.05;7.85;;;;;;;7.98;75.64;99017.94;6125947;23;20017;-90
2023/10/20 07:41:07;;;;;;;19.40;8.38;;;;;;;7.96;75.85;99001.91;6149373;23;20023;-91
2023/10/20 07:43:34;;;;;;;17.73;8.70;;;;;;;8.43;74.81;99086.19;6102592;23;20045;-92
2023/10/20 07:46:02;;;;;;;19.90;8.20;;;;;;;8.45;74.35;99062.19;6118163;23;20029;-88
2023/10/20 07:48:32;;;;;;;17.35;8.82;;;;;;;8.40;75.06;99043.22;6093479;23;20028;-91
2023/10/20 07:50:59;;;;;;;17.90;8.68;;;;;;;8.77;73.46;99112.97;6117489;23;20073;-90
2023/10/20 07:53:26;;;;;;;;;;;;;;;8.75;73.47;99119.88;6141100;23;20009;-90
2023/10/20 07:55:53;;;;;;;16.38;7.03;;;;;;;8.26;73.73;99054.09;6092610;23;19916;-92
2023/10/20 07:58:20;;;;;;;14.35;7.32;;;;;;;8.61;72.58;99115.25;6140633;23;20133;-91
2023/10/20 08:00:46;;;;;;;;;;;;;;;8.55;73.07;99108.28;6095287;23;20013;-92
2023/10/20 08:03:12;;;;;;;14.67;6.80;;;;;;;8.37;73.12;99109.16;6094779;23;20019;-91
2023/10/20 08:05:40;;;;;;;18.80;7.30;;;;;;;7.86;73.93;99017.63;6119068;23;20447;-92
2023/10/20 08:08:08;;;;;;;14.73;7.60;;;;;;;8.30;73.94;99082.34;6118320;23;20028;-93
2023/10/20 08:10:38;;;;;;;13.43;7.55;;;;;;;8.10;74.08;99047.34;6118844;23;20013;-91
2023/10/20 08:13:06;;;;;;;16.17;8.45;;;;;;;7.92;75.18;99005.53;6143117;23;20024;-91
2023/10/20 08:15:38;;;;;;;14.47;7.57;;;;;;;8.22;74.75;99064.81;6098556;23;20025;-91
2023/10/20 08:18:09;;;;;;;11.18;7.22;;;;;;;8.14;74.15;99059.25;6169623;23;20021;-92
2023/10/20 08:21:07;;;;;;;9.80;6.30;;;;;;;7.79;74.99;99014.50;6148024;23;20025;-91
2023/10/20 08:23:34;;;;;;;14.88;6.60;;;;;;;8.16;74.80;99087.78;6137699;23;20017;-91
2023/10/20 08:26:00;;;;;;;;;;;;;;;8.32;73.88;99125.63;6147519;23;20470;-91
2023/10/20 08:28:29;;;;;;;14.27;6.45;;;;;;;7.84;74.00;99058.72;6147770;23;19915;-93
2023/10/20 08:31:16;;;;;;;12.63;6.75;;;;;;;7.91;74.15;99069.22;6127921;23;20011;-95
2023/10/20 08:34:35;;;;;;;14.68;6.43;;;;;;;7.64;74.43;99021.03;6124292;23;20013;-90
2023/10/20 08:37:02;;;;;;;10.98;6.65;;;;;;;7.74;75.20;99046.13;6087848;23;20488;-91
2023/10/20 08:39:28;;;;;;;10.70;6.18;;;;;;;7.75;74.83;99061.34;6089216;23;20022;-89
2023/10/20 08:41:54;;;;;;;11.63;6.25;;;;;;;7.50;75.33;99021.81;6066970;23;20018;-92
2023/10/20 08:44:21;;;;;;;9.32;5.53;;;;;;;7.85;75.15;99070.44;6087657;23;20042;-90
2023/10/20 08:46:49;;;;;;;13.87;6.57;;;;;;;7.67;74.89;99059.31;6090073;23;20018;-91
2023/10/20 08:49:20;;;;;;;9.00;5.60;;;;;;;7.41;75.42;99018.16;6088808;23;20026;-93
2023/10/20 08:51:48;;;;;;;9.63;5.78;;;;;;;7.47;75.95;99048.81;6088318;23;20054;-91
2023/10/20 08:54:19;;;;;;;14.15;6.35;;;;;;;7.98;76.60;99140.44;6040078;23;19994;-92
2023/10/20 08:56:47;;;;;;;9.45;5.70;;;;;;;7.77;76.98;99097.22;6112890;23;20061;-91
2023/10/20 08:59:13;;;;;;;;;;;;;;;8.09;77.51;99130.94;6067354;23;20077;-91
2023/10/20 09:01:42;;;;;;;11.17;6.20;;;;;;;7.63;76.58;99047.44;6061576;23;19921;-92
2023/10/20 09:04:21;;;;;;;14.98;6.63;;;;;;;7.98;76.62;99108.56;6043986;23;20019;-93
2023/10/20 09:06:50;;;;;;;13.57;7.07;;;;;;;7.89;76.51;99087.78;6083014;23;20056;-89
2023/10/20 09:09:17;;;;;;;14.93;7.60;;;;;;;8.15;76.64;99113.41;6055170;23;20054;-92
2023/10/20 09:11:43;;;;;;;19.92;7.97;;;;;;;8.09;76.85;99103.72;6066724;23;20089;-89
2023/10/20 09:14:12;;;;;;;16.00;8.30;;;;;;;8.14;76.41;99110.97;6092822;23;20098;-89
2023/10/20 09:16:40;;;;;;;17.85;8.13;;;;;;;8.17;76.85;99121.25;6141601;23;19998;-90
2023/10/20 09:19:36;;;;;;;13.10;7.47;;;;;;;7.94;76.24;99087.66;6115997;23;20025;-91
2023/10/20 09:22:07;;;;;;;14.88;7.68;;;;;;;8.16;76.70;99139.53;6119067;23;20026;-91
2023/10/20 09:24:34;;;;;;;16.80;7.97;;;;;;;7.76;78.89;99082.00;6096517;23;20140;-90
2023/10/20 09:27:02;;;;;;;7.35;4.97;;;;;;;7.69;77.71;99078.88;6087797;23;20018;-92
2023/10/20 09:29:31;;;;;;;;;;;;;;;8.08;74.60;99147.56;6089383;23;20030;-91
2023/10/20 09:32:04;;;;;;;5.75;3.63;;;;;;;7.78;73.69;99108.91;6133487;23;19917;-91
2023/10/20 09:34:32;;;;;;;9.18;4.20;;;;;;;8.08;74.12;99158.47;6069118;23;20022;-90
2023/10/20 09:37:00;;;;;;;6.32;3.90;;;;;;;7.86;74.39;99137.38;6117135;23;20030;-88
2023/10/20 09:39:37;;;;;;;11.32;4.53;;;;;;;7.95;74.50;99160.06;6105304;23;20053;-90
2023/10/20 09:42:06;;;;;;;8.15;4.30;;;;;;;7.25;74.46;99082.91;6064640;23;20444;-91
2023/10/20 09:45:09;;;;;;;7.13;4.53;;;;;;;7.62;75.27;99126.63;6018237;23;20023;-90
2023/10/20 09:48:47;;;;;;;7.95;5.15;;;;;;;8.08;76.25;99140.22;6004624;23;20032;-91
2023/10/20 09:51:20;;;;;;;8.25;5.53;;;;;;;8.09;76.79;99111.91;6059356;23;20035;-91
2023/10/20 09:53:58;;;;;;;10.77;6.35;;;;;;;8.10;77.32;99078.09;6032645;23;20071;-90
2023/10/20 09:56:28;;;;;;;10.52;5.90;;;;;;;8.55;76.07;99140.97;6055276;23;20015;-89
2023/10/20 09:59:01;;;;;;;10.70;6.13;;;;;;;8.61;76.82;99137.03;5984575;23;20083;-90
2023/10/20 10:01:32;;;;;;;13.65;6.75;;;;;;;8.64;78.08;99131.00;6037126;23;20056;-92
2023/10/20 10:04:04;;;;;;;13.77;7.88;;;;;;;8.35;76.66;99070.56;6013708;23;20074;-91
2023/10/20 10:06:38;;;;;;;17.38;10.65;;;;;;;8.55;74.99;99099.31;6035782;23;20019;-91
2023/10/20 10:09:08;;;;;;;15.85;9.57;;;;;;;8.43;75.30;99103.34;6016027;23;20015;-90
2023/10/20 10:12:20;;;;;;;14.48;8.70;;;;;;;8.41;75.50;99100.13;6036465;23;20046;-90
2023/10/20 10:15:01;;;;;;;15.15;9.00;;;;;;;8.50;75.15;99143.00;6034688;23;20046;-91
2023/10/20 10:17:34;;;;;;;15.52;8.73;;;;;;;7.81;76.25;99039.47;6057335;23;20049;-91
2023/10/20 10:20:07;;;;;;;14.18;9.10;;;;;;;8.42;76.14;99139.06;6055810;23;20002;-91
2023/10/20 10:23:04;;;;;;;15.82;9.00;;;;;;;8.35;77.21;99135.91;6078654;23;20020;-91
2023/10/20 10:25:58;;;;;;;15.55;8.35;;;;;;;8.06;76.65;99090.72;6163562;23;20044;-90
2023/10/20 10:28:25;;;;;;;12.38;7.22;;;;;;;7.84;76.18;99055.22;6159080;23;20021;-92
2023/10/20 10:30:52;;;;;;;11.07;6.72;;;;;;;7.83;75.23;99050.88;6198918;23;20016;-93
2023/10/20 10:33:21;;;;;;;11.50;7.35;;;;;;;8.45;75.53;99149.38;6176361;23;20039;-90
2023/10/20 10:36:03;;;;;;;12.07;6.72;;;;;;;8.50;75.69;99138.34;6196750;23;20020;-90
2023/10/20 10:38:44;;;;;;;9.05;6.13;;;;;;;8.25;74.88;99101.53;6183350;23;20008;-90
2023/10/20 10:41:12;;;;;;;10.20;5.80;;;;;;;8.18;73.66;99088.31;6122583;23;20021;-91
2023/10/20 10:43:39;;;;;;;9.25;5.03;;;;;;;8.38;72.85;99127.97;6144500;23;20021;-91
2023/10/20 10:46:06;;;;;;;6.55;4.40;;;;;;;8.58;70.77;99142.28;6151480;23;20044;-91
2023/10/20 10:48:35;;;;;;;9.07;4.20;;;;;;;8.32;70.24;99106.56;6176670;23;20037;-92
2023/10/20 10:51:05;;;;;;;7.32;4.13;;;;;;;8.18;71.46;99082.06;6151609;23;20291;-91
2023/10/20 10:53:35;;;;;;;12.07;4.30;;;;;;;7.94;69.85;99038.69;6151675;23;20013;-92
2023/10/20 10:56:24;;;;;;;4.88;3.40;;;;;;;8.35;68.62;99084.97;6176629;23;19993;-90
2023/10/20 10:58:57;;;;;;;5.25;3.75;;;;;;;8.44;66.99;99104.97;6155280;23;20024;-91
2023/10/20 11:01:27;;;;;;;7.13;4.00;;;;;;;8.14;69.32;99051.88;6150737;23;20067;-92
2023/10/20 11:04:19;;;;;;;6.00;4.07;;;;;;;8.51;68.68;99093.66;6203187;23;20040;-94
2023/10/20 11:06:52;;;;;;;7.60;4.32;;;;;;;8.20;67.84;99041.69;6178432;23;20052;-93
2023/10/20 11:09:29;;;;;;;9.85;4.53;;;;;;;8.77;68.00;99139.44;6177446;23;20025;-92
2023/10/20 11:11:56;;;;;;;6.53;3.88;;;;;;;8.49;67.16;99095.88;6170314;23;20013;-93
2023/10/20 11:14:25;;;;;;;6.95;4.13;;;;;;;8.65;68.72;99118.97;6174072;23;20016;-93
2023/10/20 11:16:54;;;;;;;8.95;4.32;;;;;;;8.78;68.77;99147.31;6171757;23;20037;-92
2023/10/20 11:19:22;;;;;;;6.32;4.28;;;;;;;8.73;69.40;99152.84;6147450;23;20036;-92
2023/10/20 11:21:49;;;;;;;;;;;;;;;8.77;69.18;99153.84;6175295;23;20052;-93
2023/10/20 11:24:25;;;;;;;8.25;4.40;;;;;;;8.79;69.81;99154.38;6150244;23;19920;-94
2023/10/20 11:27:02;;;;;;;7.25;4.90;;;;;;;8.36;70.15;99086.56;6150697;23;20051;-91
2023/10/20 11:29:35;;;;;;;8.15;4.85;;;;;;;8.36;71.19;99108.38;6149757;23;20029;-93
2023/10/20 11:32:14;;;;;;;11.38;5.18;;;;;;;8.27;70.17;99091.09;6201150;23;20051;-92
2023/10/20 11:34:41;;;;;;;8.20;5.35;;;;;;;8.50;69.38;99113.81;6177950;23;20012;-93
2023/10/20 11:37:08;;;;;;;12.77;6.23;;;;;;;8.16;70.65;99046.94;6197815;23;20043;-91
2023/10/20 11:39:36;;;;;;;13.35;6.57;;;;;;;8.11;71.32;99049.78;6169842;23;20455;-92
2023/10/20 11:42:07;;;;;;;14.77;6.30;;;;;;;8.49;72.33;99117.69;6173223;23;20076;-90
2023/10/20 11:44:34;;;;;;;15.68;7.40;;;;;;;8.57;73.10;99146.91;6205025;23;20021;-93
2023/10/20 11:47:00;;;;;;;16.65;8.48;;;;;;;8.39;73.10;99124.13;6199857;23;20024;-91
2023/10/20 11:49:26;;;;;;;21.00;10.38;;;;;;;8.20;73.85;99090.72;6177943;23;20024;-91
2023/10/20 11:51:55;;;;;;;22.25;8.45;;;;;;;8.44;72.87;99145.00;6207772;23;20017;-89
2023/10/20 11:54:21;;;;;;;18.65;8.90;;;;;;;8.28;74.09;99128.16;6197805;23;20044;-89
2023/10/20 11:56:50;;;;;;;24.35;9.05;;;;;;;8.27;74.36;99117.53;6171082;23;20021;-92
2023/10/20 11:59:17;;;;;;;15.90;9.48;;;;;;;7.83;74.44;99057.13;6175785;23;20023;-91
2023/10/20 12:01:44;;;;;;;23.98;10.13;;;;;;;8.42;74.89;99144.50;6174486;23;20021;-91
2023/10/20 12:04:13;;;;;;;20.00;7.07;;;;;;;7.92;74.30;99081.75;6150642;23;20021;-91
2023/10/20 12:06:39;;;;;;;12.97;7.73;;;;;;;8.13;74.16;99115.63;6149905;23;20021;-91
2023/10/20 12:09:10;;;;;;;10.35;6.57;;;;;;;8.20;74.76;99137.00;6168878;23;20021;-94
2023/10/20 12:11:39;;;;;;;14.15;7.55;;;;;;;8.00;74.38;99151.81;6101390;23;20025;-94
2023/10/20 12:14:09;;;;;;;16.00;7.63;;;;;;;7.91;74.91;99140.81;6171711;23;20017;-89
2023/10/20 12:16:37;;;;;;;12.73;7.38;;;;;;;7.69;75.05;99121.59;6181643;23;20013;-90
2023/10/20 12:19:09;;;;;;;13.80;7.53;;;;;;;7.79;74.90;99115.19;6177566;23;20021;-94